Time,TemperatureF,DewpointF,PressureIn,WindDirection,WindDirectionDegrees,WindSpeedMPH,WindSpeedGustMPH,Humidity,HourlyPrecipIn,Conditions,Clouds,dailyrainin,SoftwareType,DateUTC
2013-12-03 00:00:00,58.0,35.1,29.91,SSW,210,0.0,0.0,42,0.00,,,0.00,VWS V14.00,2013-12-03 05:00:00,
2013-12-03 00:01:00,58.0,35.1,29.91,SSW,210,0.0,0.0,42,0.00,,,0.00,VWS V14.00,2013-12-03 05:01:00,
2013-12-03 00:02:00,57.9,35.0,29.91,SSW,211,0.0,0.0,42,0.00,,,0.00,VWS V14.00,2013-12-03 05:02:00,
2013-12-03 00:04:00,57.8,34.3,29.91,SSW,211,0.0,0.0,41,0.00,,,0.00,VWS V14.00,2013-12-03 05:04:00,
2013-12-03 00:05:00,57.8,34.3,29.91,SSW,211,0.0,0.0,41,0.00,,,0.00,VWS V14.00,2013-12-03 05:05:00,
2013-12-03 00:10:00,57.6,34.1,29.91,SSW,210,0.0,0.0,41,0.00,,,0.00,VWS V14.00,2013-12-03 05:10:00,
2013-12-03 00:15:00,57.3,33.8,29.91,SSW,211,0.0,0.0,41,0.00,,,0.00,VWS V14.00,2013-12-03 05:15:00,
2013-12-03 00:20:00,57.2,33.1,29.90,SSW,210,0.0,0.0,40,0.00,,,0.00,VWS V14.00,2013-12-03 05:20:00,
2013-12-03 00:25:00,57.0,32.9,29.90,SSW,211,0.0,0.0,40,0.00,,,0.00,VWS V14.00,2013-12-03 05:25:00,
2013-12-03 00:30:00,56.9,32.8,29.90,SSW,210,0.0,0.0,40,0.00,,,0.00,VWS V14.00,2013-12-03 05:30:00,
2013-12-03 00:35:00,56.7,32.7,29.90,SSW,210,0.0,0.0,40,0.00,,,0.00,VWS V14.00,2013-12-03 05:35:00,
2013-12-03 00:40:00,56.5,32.5,29.90,SSW,211,0.0,0.0,40,0.00,,,0.00,VWS V14.00,2013-12-03 05:40:00,
2013-12-03 00:46:00,56.2,32.2,29.90,SSW,211,0.0,0.0,40,0.00,,,0.00,VWS V14.00,2013-12-03 05:46:00,
2013-12-03 00:51:00,56.0,32.0,29.90,SSW,210,0.0,0.0,40,0.00,,,0.00,VWS V14.00,2013-12-03 05:51:00,
2013-12-03 00:56:00,55.9,31.3,29.90,SSW,211,0.0,0.0,39,0.00,,,0.00,VWS V14.00,2013-12-03 05:56:00,
2013-12-03 01:00:00,55.9,30.7,29.90,SSW,210,0.0,0.0,38,0.00,,,0.00,VWS V14.00,2013-12-03 06:00:00,
2013-12-03 01:01:00,55.9,30.7,29.90,SSW,211,0.0,0.0,38,0.00,,,0.00,VWS V14.00,2013-12-03 06:01:00,
2013-12-03 01:06:00,55.9,30.7,29.90,SSW,211,0.0,0.0,38,0.00,,,0.00,VWS V14.00,2013-12-03 06:06:00,
2013-12-03 01:11:00,55.9,30.0,29.90,SSW,210,0.0,0.0,37,0.00,,,0.00,VWS V14.00,2013-12-03 06:11:00,
2013-12-03 01:16:00,55.8,29.9,29.90,SSW,210,0.0,0.0,37,0.00,,,0.00,VWS V14.00,2013-12-03 06:16:00,
2013-12-03 01:21:00,55.8,29.9,29.91,SSW,210,0.0,0.0,37,0.00,,,0.00,VWS V14.00,2013-12-03 06:21:00,
2013-12-03 01:26:00,55.9,30.0,29.91,SSW,211,0.0,0.0,37,0.00,,,0.00,VWS V14.00,2013-12-03 06:26:00,
2013-12-03 01:30:00,55.9,30.0,29.91,SSW,211,0.0,0.0,37,0.00,,,0.00,VWS V14.00,2013-12-03 06:30:00,
2013-12-03 01:31:00,55.9,30.0,29.91,SSW,210,0.0,0.0,37,0.00,,,0.00,VWS V14.00,2013-12-03 06:31:00,
2013-12-03 01:36:00,56.0,30.1,29.91,SSW,211,0.0,0.0,37,0.00,,,0.00,VWS V14.00,2013-12-03 06:36:00,
2013-12-03 01:41:00,56.0,30.1,29.91,SSW,211,0.0,0.0,37,0.00,,,0.00,VWS V14.00,2013-12-03 06:41:00,
2013-12-03 01:46:00,56.0,30.1,29.91,SSW,211,0.0,0.0,37,0.00,,,0.00,VWS V14.00,2013-12-03 06:46:00,
2013-12-03 01:51:00,56.0,30.1,29.91,SSW,210,0.0,0.0,37,0.00,,,0.00,VWS V14.00,2013-12-03 06:51:00,
2013-12-03 01:56:00,56.0,30.1,29.91,SSW,211,0.0,0.0,37,0.00,,,0.00,VWS V14.00,2013-12-03 06:56:00,
2013-12-03 02:00:00,55.9,30.0,29.91,SSW,211,0.0,0.0,37,0.00,,,0.00,VWS V14.00,2013-12-03 07:00:00,
2013-12-03 02:02:00,56.0,30.1,29.91,SSW,211,0.0,0.0,37,0.00,,,0.00,VWS V14.00,2013-12-03 07:02:00,
2013-12-03 02:07:00,56.0,30.1,29.91,SSW,210,0.0,0.0,37,0.00,,,0.00,VWS V14.00,2013-12-03 07:07:00,
2013-12-03 02:12:00,56.1,29.5,29.91,SSW,211,0.0,0.0,36,0.00,,,0.00,VWS V14.00,2013-12-03 07:12:00,
2013-12-03 02:17:00,56.2,29.6,29.91,SSW,210,0.0,0.0,36,0.00,,,0.00,VWS V14.00,2013-12-03 07:17:00,
2013-12-03 02:22:00,56.3,29.7,29.91,SSW,210,0.0,0.0,36,0.00,,,0.00,VWS V14.00,2013-12-03 07:22:00,
2013-12-03 02:27:00,56.4,29.8,29.91,SSW,211,0.0,0.0,36,0.00,,,0.00,VWS V14.00,2013-12-03 07:27:00,
2013-12-03 02:30:00,56.4,29.8,29.91,SSW,211,0.0,0.0,36,0.00,,,0.00,VWS V14.00,2013-12-03 07:30:00,
2013-12-03 02:32:00,56.4,29.8,29.91,SSW,211,0.0,0.0,36,0.00,,,0.00,VWS V14.00,2013-12-03 07:32:00,
2013-12-03 02:37:00,56.5,29.9,29.92,SSW,210,0.0,0.0,36,0.00,,,0.00,VWS V14.00,2013-12-03 07:37:00,
2013-12-03 02:42:00,56.6,30.0,29.92,SSW,210,0.0,0.0,36,0.00,,,0.00,VWS V14.00,2013-12-03 07:42:00,
2013-12-03 02:47:00,56.7,30.1,29.92,SSW,211,0.0,0.0,36,0.00,,,0.00,VWS V14.00,2013-12-03 07:47:00,
2013-12-03 02:52:00,56.8,30.1,29.92,SSW,211,0.0,0.0,36,0.00,,,0.00,VWS V14.00,2013-12-03 07:52:00,
2013-12-03 02:57:00,56.9,30.2,29.92,SSW,210,0.0,0.0,36,0.00,,,0.00,VWS V14.00,2013-12-03 07:57:00,
2013-12-03 03:00:00,56.9,30.2,29.92,SSW,210,0.0,0.0,36,0.00,,,0.00,VWS V14.00,2013-12-03 08:00:00,
2013-12-03 03:02:00,56.9,30.2,29.92,SSW,210,0.0,0.0,36,0.00,,,0.00,VWS V14.00,2013-12-03 08:02:00,
2013-12-03 03:08:00,56.9,30.9,29.92,SSW,210,0.0,0.0,37,0.00,,,0.00,VWS V14.00,2013-12-03 08:08:00,
2013-12-03 03:13:00,56.9,30.9,29.93,SSW,211,0.0,0.0,37,0.00,,,0.00,VWS V14.00,2013-12-03 08:13:00,
2013-12-03 03:18:00,56.9,30.9,29.93,SSW,211,0.0,0.0,37,0.00,,,0.00,VWS V14.00,2013-12-03 08:18:00,
2013-12-03 03:30:00,57.1,31.1,29.93,North,0,0.0,0.0,37,0.00,,,0.00,VWS V14.00,2013-12-03 08:30:00,
2013-12-03 04:00:00,57.3,31.3,29.92,North,0,0.0,0.0,37,0.00,,,0.00,VWS V14.00,2013-12-03 09:00:00,
2013-12-03 04:30:00,56.8,30.8,29.91,North,0,0.0,0.0,37,0.00,,,0.00,VWS V14.00,2013-12-03 09:30:00,
2013-12-03 05:00:00,56.5,29.9,29.92,North,0,0.0,0.0,36,0.00,,,0.00,VWS V14.00,2013-12-03 10:00:00,
2013-12-03 05:30:00,55.9,29.4,29.92,North,0,0.0,0.0,36,0.00,,,0.00,VWS V14.00,2013-12-03 10:30:00,
2013-12-03 06:00:00,55.3,28.8,29.92,North,0,0.0,0.0,36,0.00,,,0.00,VWS V14.00,2013-12-03 11:00:00,
2013-12-03 06:30:00,54.8,28.4,29.93,North,0,0.0,0.0,36,0.00,,,0.00,VWS V14.00,2013-12-03 11:30:00,
2013-12-03 07:07:00,54.3,28.6,29.94,SSW,210,0.0,0.0,37,0.00,,,0.00,VWS V14.00,2013-12-03 12:07:00,
2013-12-03 07:12:00,54.2,28.5,29.94,SSW,210,0.0,0.0,37,0.00,,,0.00,VWS V14.00,2013-12-03 12:12:00,
2013-12-03 07:17:00,54.1,28.4,29.94,SSW,210,0.0,0.0,37,0.00,,,0.00,VWS V14.00,2013-12-03 12:17:00,
2013-12-03 07:22:00,54.1,28.4,29.95,SSW,210,0.0,0.0,37,0.00,,,0.00,VWS V14.00,2013-12-03 12:22:00,
2013-12-03 07:27:00,54.2,28.5,29.94,SSW,210,0.0,0.0,37,0.00,,,0.00,VWS V14.00,2013-12-03 12:27:00,
2013-12-03 07:30:00,54.2,28.5,29.95,SSW,210,0.0,0.0,37,0.00,,,0.00,VWS V14.00,2013-12-03 12:30:00,
2013-12-03 07:32:00,54.2,28.5,29.95,SSW,210,0.0,0.0,37,0.00,,,0.00,VWS V14.00,2013-12-03 12:32:00,
2013-12-03 07:37:00,54.3,28.6,29.94,SSW,210,0.0,0.0,37,0.00,,,0.00,VWS V14.00,2013-12-03 12:37:00,
2013-12-03 07:42:00,54.6,28.2,29.95,SSW,210,0.0,0.0,36,0.00,,,0.00,VWS V14.00,2013-12-03 12:42:00,
2013-12-03 07:47:00,54.7,28.3,29.95,SSW,210,0.0,0.0,36,0.00,,,0.00,VWS V14.00,2013-12-03 12:47:00,
2013-12-03 07:52:00,54.8,28.4,29.95,SSW,210,0.0,0.0,36,0.00,,,0.00,VWS V14.00,2013-12-03 12:52:00,
2013-12-03 07:57:00,54.9,28.5,29.95,SSW,210,0.0,0.0,36,0.00,,,0.00,VWS V14.00,2013-12-03 12:57:00,
2013-12-03 08:00:00,55.0,28.6,29.95,SSW,210,0.0,0.0,36,0.00,,,0.00,VWS V14.00,2013-12-03 13:00:00,
2013-12-03 08:02:00,55.0,28.6,29.95,SSW,210,0.0,0.0,36,0.00,,,0.00,VWS V14.00,2013-12-03 13:02:00,
2013-12-03 08:07:00,55.3,28.8,29.95,SSW,210,0.0,0.0,36,0.00,,,0.00,VWS V14.00,2013-12-03 13:07:00,
2013-12-03 08:12:00,56.0,29.4,29.95,SSW,210,0.0,0.0,36,0.00,,,0.00,VWS V14.00,2013-12-03 13:12:00,
2013-12-03 08:17:00,56.7,30.1,29.95,SSW,210,0.0,0.0,36,0.00,,,0.00,VWS V14.00,2013-12-03 13:17:00,
2013-12-03 08:22:00,57.3,30.6,29.95,SSW,210,0.0,0.0,36,0.00,,,0.00,VWS V14.00,2013-12-03 13:22:00,
2013-12-03 08:27:00,57.7,31.0,29.95,SSW,209,0.0,1.0,36,0.00,,,0.00,VWS V14.00,2013-12-03 13:27:00,
2013-12-03 08:30:00,58.1,31.3,29.95,SSW,210,0.0,1.0,36,0.00,,,0.00,VWS V14.00,2013-12-03 13:30:00,
2013-12-03 08:32:00,58.1,31.3,29.96,SSW,210,0.0,0.0,36,0.00,,,0.00,VWS V14.00,2013-12-03 13:32:00,
2013-12-03 08:37:00,58.6,31.8,29.96,SSW,210,0.0,0.0,36,0.00,,,0.00,VWS V14.00,2013-12-03 13:37:00,
2013-12-03 08:42:00,59.0,32.1,29.96,SSW,210,0.0,0.0,36,0.00,,,0.00,VWS V14.00,2013-12-03 13:42:00,
2013-12-03 08:48:00,59.4,31.8,29.97,SSW,210,0.0,0.0,35,0.00,,,0.00,VWS V14.00,2013-12-03 13:48:00,
2013-12-03 08:53:00,60.0,32.3,29.97,SSW,210,0.0,0.0,35,0.00,,,0.00,VWS V14.00,2013-12-03 13:53:00,
2013-12-03 08:58:00,60.8,33.0,29.97,SSW,210,0.0,0.0,35,0.00,,,0.00,VWS V14.00,2013-12-03 13:58:00,
2013-12-03 09:00:00,61.3,34.1,29.96,South,182,0.0,0.0,36,0.00,,,0.00,VWS V14.00,2013-12-03 14:00:00,
2013-12-03 09:03:00,61.4,34.2,29.97,South,182,0.0,0.0,36,0.00,,,0.00,VWS V14.00,2013-12-03 14:03:00,
2013-12-03 09:08:00,62.1,36.9,29.96,South,172,0.0,0.0,39,0.00,,,0.00,VWS V14.00,2013-12-03 14:08:00,
2013-12-03 09:13:00,62.7,39.9,29.97,South,172,0.0,0.0,43,0.00,,,0.00,VWS V14.00,2013-12-03 14:13:00,
2013-12-03 09:18:00,63.2,42.7,29.97,SSW,196,0.0,0.0,47,0.00,,,0.00,VWS V14.00,2013-12-03 14:18:00,
2013-12-03 09:23:00,63.8,44.3,29.97,SSW,196,0.0,0.0,49,0.00,,,0.00,VWS V14.00,2013-12-03 14:23:00,
2013-12-03 09:28:00,64.1,47.1,29.97,SSW,204,0.0,2.0,54,0.00,,,0.00,VWS V14.00,2013-12-03 14:28:00,
2013-12-03 09:30:00,64.6,47.6,29.98,SSW,204,0.0,2.0,54,0.00,,,0.00,VWS V14.00,2013-12-03 14:30:00,
2013-12-03 09:33:00,64.7,47.7,29.98,SSW,203,0.0,0.0,54,0.00,,,0.00,VWS V14.00,2013-12-03 14:33:00,
2013-12-03 09:38:00,65.4,48.8,29.98,SSW,204,0.0,0.0,55,0.00,,,0.00,VWS V14.00,2013-12-03 14:38:00,
2013-12-03 09:43:00,66.0,50.3,29.98,SSW,203,0.0,0.0,57,0.00,,,0.00,VWS V14.00,2013-12-03 14:43:00,
2013-12-03 09:48:00,66.8,51.6,29.98,SSW,203,0.0,0.0,58,0.00,,,0.00,VWS V14.00,2013-12-03 14:48:00,
2013-12-03 09:53:00,67.5,53.6,29.98,SSW,199,0.0,1.0,61,0.00,,,0.00,VWS V14.00,2013-12-03 14:53:00,
2013-12-03 09:58:00,68.0,54.1,29.98,WSW,238,0.0,1.0,61,0.00,,,0.00,VWS V14.00,2013-12-03 14:58:00,
2013-12-03 10:00:00,68.4,54.9,29.98,SSW,194,0.0,2.0,62,0.00,,,0.00,VWS V14.00,2013-12-03 15:00:00,
2013-12-03 10:03:00,68.5,55.0,29.99,SSW,194,0.0,0.0,62,0.00,,,0.00,VWS V14.00,2013-12-03 15:03:00,
2013-12-03 10:08:00,69.0,55.5,29.99,SW,219,0.0,0.0,62,0.00,,,0.00,VWS V14.00,2013-12-03 15:08:00,
2013-12-03 10:13:00,69.3,55.7,29.99,SW,219,0.0,0.0,62,0.00,,,0.00,VWS V14.00,2013-12-03 15:13:00,
2013-12-03 10:18:00,69.4,56.3,29.99,SW,220,0.0,3.0,63,0.00,,,0.00,VWS V14.00,2013-12-03 15:18:00,
2013-12-03 10:23:00,69.5,56.4,29.99,SSW,209,0.0,3.0,63,0.00,,,0.00,VWS V14.00,2013-12-03 15:23:00,
2013-12-03 10:28:00,69.8,56.7,29.99,WSW,238,0.0,3.0,63,0.00,,,0.00,VWS V14.00,2013-12-03 15:28:00,
2013-12-03 10:30:00,69.8,56.7,29.99,WSW,238,0.0,3.0,63,0.00,,,0.00,VWS V14.00,2013-12-03 15:30:00,
2013-12-03 10:33:00,69.9,56.8,29.99,WSW,238,0.0,0.0,63,0.00,,,0.00,VWS V14.00,2013-12-03 15:33:00,
2013-12-03 10:38:00,70.2,57.0,29.98,WSW,238,0.0,0.0,63,0.00,,,0.00,VWS V14.00,2013-12-03 15:38:00,
2013-12-03 10:44:00,70.6,57.4,29.98,WSW,238,0.0,0.0,63,0.00,,,0.00,VWS V14.00,2013-12-03 15:44:00,
2013-12-03 10:49:00,70.8,57.6,29.98,SW,228,0.0,1.0,63,0.00,,,0.00,VWS V14.00,2013-12-03 15:49:00,
2013-12-03 10:54:00,71.1,57.9,29.98,WSW,237,0.0,3.0,63,0.00,,,0.00,VWS V14.00,2013-12-03 15:54:00,
2013-12-03 10:59:00,71.7,58.5,29.98,WSW,238,0.0,3.0,63,0.00,,,0.00,VWS V14.00,2013-12-03 15:59:00,
2013-12-03 11:00:00,72.0,58.7,29.98,SSW,195,0.0,3.0,63,0.00,,,0.00,VWS V14.00,2013-12-03 16:00:00,
2013-12-03 11:04:00,72.2,58.9,29.98,SSW,195,0.0,0.0,63,0.00,,,0.00,VWS V14.00,2013-12-03 16:04:00,
2013-12-03 11:09:00,72.6,59.3,29.98,WSW,240,0.0,2.0,63,0.00,,,0.00,VWS V14.00,2013-12-03 16:09:00,
2013-12-03 11:14:00,72.8,59.5,29.98,SW,218,0.0,2.0,63,0.00,,,0.00,VWS V14.00,2013-12-03 16:14:00,
2013-12-03 11:19:00,72.9,59.6,29.98,SW,214,0.0,2.0,63,0.00,,,0.00,VWS V14.00,2013-12-03 16:19:00,
2013-12-03 11:24:00,73.2,59.9,29.98,SW,221,0.0,2.0,63,0.00,,,0.00,VWS V14.00,2013-12-03 16:24:00,
2013-12-03 11:29:00,73.6,59.8,29.98,SSW,211,0.0,5.0,62,0.00,,,0.00,VWS V14.00,2013-12-03 16:29:00,
2013-12-03 11:30:00,73.6,59.8,29.98,SSW,210,0.0,5.0,62,0.00,,,0.00,VWS V14.00,2013-12-03 16:30:00,
2013-12-03 11:34:00,73.7,59.9,29.97,SSW,210,0.0,0.0,62,0.00,,,0.00,VWS V14.00,2013-12-03 16:34:00,
2013-12-03 11:39:00,73.7,60.3,29.97,SSE,153,0.0,1.0,63,0.00,,,0.00,VWS V14.00,2013-12-03 16:39:00,
2013-12-03 11:44:00,73.9,60.5,29.97,WSW,253,0.0,1.0,63,0.00,,,0.00,VWS V14.00,2013-12-03 16:44:00,
2013-12-03 11:49:00,74.2,60.4,29.97,SSE,151,2.0,3.0,62,0.00,,,0.00,VWS V14.00,2013-12-03 16:49:00,
2013-12-03 11:54:00,74.4,60.5,29.97,South,185,0.0,5.0,62,0.00,,,0.00,VWS V14.00,2013-12-03 16:54:00,
2013-12-03 11:59:00,74.6,60.7,29.97,SSE,161,0.0,5.0,62,0.00,,,0.00,VWS V14.00,2013-12-03 16:59:00,
2013-12-03 12:00:00,74.7,60.8,29.97,South,191,0.0,5.0,62,0.00,,,0.00,VWS V14.00,2013-12-03 17:00:00,
2013-12-03 12:04:00,74.8,60.9,29.97,South,191,0.0,0.0,62,0.00,,,0.00,VWS V14.00,2013-12-03 17:04:00,
2013-12-03 12:09:00,75.1,60.8,29.96,SSW,200,0.0,1.0,61,0.00,,,0.00,VWS V14.00,2013-12-03 17:09:00,
2013-12-03 12:14:00,75.6,61.2,29.96,SW,227,0.0,1.0,61,0.00,,,0.00,VWS V14.00,2013-12-03 17:14:00,
2013-12-03 12:19:00,75.9,61.5,29.96,South,183,0.0,4.0,61,0.00,,,0.00,VWS V14.00,2013-12-03 17:19:00,
2013-12-03 12:24:00,76.2,61.3,29.95,South,171,0.0,4.0,60,0.00,,,0.00,VWS V14.00,2013-12-03 17:24:00,
2013-12-03 12:29:00,76.4,61.5,29.95,WSW,241,0.0,6.0,60,0.00,,,0.00,VWS V14.00,2013-12-03 17:29:00,
2013-12-03 12:30:00,76.5,60.6,29.95,SW,230,5.0,6.0,58,0.00,,,0.00,VWS V14.00,2013-12-03 17:30:00,
2013-12-03 12:34:00,76.5,60.6,29.95,SSW,196,0.0,5.0,58,0.00,,,0.00,VWS V14.00,2013-12-03 17:34:00,
2013-12-03 12:39:00,76.4,60.5,29.95,West,279,0.0,5.0,58,0.00,,,0.00,VWS V14.00,2013-12-03 17:39:00,
2013-12-03 12:44:00,76.6,61.2,29.94,South,180,0.0,5.0,59,0.00,,,0.00,VWS V14.00,2013-12-03 17:44:00,
2013-12-03 12:50:00,76.7,61.3,29.94,West,269,0.0,6.0,59,0.00,,,0.00,VWS V14.00,2013-12-03 17:50:00,
2013-12-03 12:55:00,77.3,61.4,29.94,SW,214,3.0,6.0,58,0.00,,,0.00,VWS V14.00,2013-12-03 17:55:00,
2013-12-03 13:00:00,77.1,62.2,29.94,SSW,200,0.0,6.0,60,0.00,,,0.00,VWS V14.00,2013-12-03 18:00:00,
2013-12-03 13:05:00,77.1,61.7,29.94,South,178,2.0,4.0,59,0.00,,,0.00,VWS V14.00,2013-12-03 18:05:00,
2013-12-03 13:10:00,77.3,60.9,29.94,SW,219,0.0,6.0,57,0.00,,,0.00,VWS V14.00,2013-12-03 18:10:00,
2013-12-03 13:15:00,77.3,61.4,29.94,SSW,210,0.0,6.0,58,0.00,,,0.00,VWS V14.00,2013-12-03 18:15:00,
2013-12-03 13:20:00,76.9,61.5,29.93,SSW,202,0.0,6.0,59,0.00,,,0.00,VWS V14.00,2013-12-03 18:20:00,
2013-12-03 13:25:00,76.8,61.4,29.93,SSW,204,0.0,6.0,59,0.00,,,0.00,VWS V14.00,2013-12-03 18:25:00,
2013-12-03 13:30:00,77.0,61.1,29.92,SSW,205,0.0,6.0,58,0.00,,,0.00,VWS V14.00,2013-12-03 18:30:00,
2013-12-03 13:35:00,77.3,61.9,29.92,WSW,241,0.0,2.0,59,0.00,,,0.00,VWS V14.00,2013-12-03 18:35:00,
2013-12-03 13:40:00,77.5,61.6,29.92,SSW,205,0.0,2.0,58,0.00,,,0.00,VWS V14.00,2013-12-03 18:40:00,
2013-12-03 13:45:00,77.7,62.2,29.92,SSW,205,0.0,2.0,59,0.00,,,0.00,VWS V14.00,2013-12-03 18:45:00,
2013-12-03 13:50:00,78.2,62.7,29.92,SSE,163,0.0,5.0,59,0.00,,,0.00,VWS V14.00,2013-12-03 18:50:00,
2013-12-03 13:55:00,78.4,61.4,29.92,SSW,210,0.0,6.0,56,0.00,,,0.00,VWS V14.00,2013-12-03 18:55:00,
2013-12-03 14:00:00,78.2,61.7,29.92,South,182,0.0,6.0,57,0.00,,,0.00,VWS V14.00,2013-12-03 19:00:00,
2013-12-03 14:05:00,77.8,62.3,29.92,South,185,0.0,1.0,59,0.00,,,0.00,VWS V14.00,2013-12-03 19:05:00,
2013-12-03 14:10:00,77.8,62.3,29.92,SW,222,0.0,1.0,59,0.00,,,0.00,VWS V14.00,2013-12-03 19:10:00,
2013-12-03 14:15:00,77.6,61.7,29.92,South,173,0.0,1.0,58,0.00,,,0.00,VWS V14.00,2013-12-03 19:15:00,
2013-12-03 14:20:00,77.2,61.8,29.91,SW,236,0.0,4.0,59,0.00,,,0.00,VWS V14.00,2013-12-03 19:20:00,
2013-12-03 14:25:00,77.1,62.2,29.91,SW,234,0.0,4.0,60,0.00,,,0.00,VWS V14.00,2013-12-03 19:25:00,
2013-12-03 14:30:00,77.0,62.1,29.91,SSW,201,0.0,4.0,60,0.00,,,0.00,VWS V14.00,2013-12-03 19:30:00,
2013-12-03 14:35:00,76.9,62.0,29.91,South,183,0.0,1.0,60,0.00,,,0.00,VWS V14.00,2013-12-03 19:35:00,
2013-12-03 14:40:00,76.7,61.8,29.91,South,183,0.0,1.0,60,0.00,,,0.00,VWS V14.00,2013-12-03 19:40:00,
2013-12-03 14:45:00,76.7,61.8,29.90,South,180,0.0,2.0,60,0.00,,,0.00,VWS V14.00,2013-12-03 19:45:00,
2013-12-03 14:50:00,77.1,61.7,29.90,South,172,0.0,2.0,59,0.00,,,0.00,VWS V14.00,2013-12-03 19:50:00,
2013-12-03 14:55:00,77.5,62.1,29.90,South,190,0.0,3.0,59,0.00,,,0.00,VWS V14.00,2013-12-03 19:55:00,
2013-12-03 15:00:00,77.3,62.3,29.90,South,190,0.0,3.0,60,0.00,,,0.00,VWS V14.00,2013-12-03 20:00:00,
2013-12-03 15:01:00,77.4,62.0,29.90,South,190,0.0,3.0,59,0.00,,,0.00,VWS V14.00,2013-12-03 20:01:00,
2013-12-03 15:06:00,77.0,62.1,29.90,SSW,198,0.0,1.0,60,0.00,,,0.00,VWS V14.00,2013-12-03 20:06:00,
2013-12-03 15:11:00,76.6,62.6,29.90,SSW,198,0.0,1.0,62,0.00,,,0.00,VWS V14.00,2013-12-03 20:11:00,
2013-12-03 15:16:00,76.5,62.1,29.90,SSW,198,0.0,1.0,61,0.00,,,0.00,VWS V14.00,2013-12-03 20:16:00,
2013-12-03 15:21:00,76.7,61.8,29.90,SSW,209,0.0,3.0,60,0.00,,,0.00,VWS V14.00,2013-12-03 20:21:00,
2013-12-03 15:26:00,76.7,61.8,29.90,SSW,208,0.0,3.0,60,0.00,,,0.00,VWS V14.00,2013-12-03 20:26:00,
2013-12-03 15:30:00,76.8,61.9,29.90,SSW,207,0.0,3.0,60,0.00,,,0.00,VWS V14.00,2013-12-03 20:30:00,
2013-12-03 15:31:00,76.9,62.0,29.90,SSW,192,0.0,3.0,60,0.00,,,0.00,VWS V14.00,2013-12-03 20:31:00,
2013-12-03 15:36:00,76.6,62.2,29.89,SSW,206,0.0,0.0,61,0.00,,,0.00,VWS V14.00,2013-12-03 20:36:00,
2013-12-03 15:41:00,76.1,61.7,29.89,WSW,237,1.0,5.0,61,0.00,,,0.00,VWS V14.00,2013-12-03 20:41:00,
2013-12-03 15:46:00,75.8,61.4,29.89,SW,217,0.0,5.0,61,0.00,,,0.00,VWS V14.00,2013-12-03 20:46:00,
2013-12-03 15:51:00,75.6,61.7,29.89,SW,217,0.0,5.0,62,0.00,,,0.00,VWS V14.00,2013-12-03 20:51:00,
2013-12-03 15:56:00,75.4,61.0,29.89,SW,217,0.0,5.0,61,0.00,,,0.00,VWS V14.00,2013-12-03 20:56:00,
2013-12-03 16:00:00,75.2,61.3,29.89,SW,217,0.0,5.0,62,0.00,,,0.00,VWS V14.00,2013-12-03 21:00:00,
2013-12-03 16:01:00,75.2,61.3,29.89,SW,217,0.0,5.0,62,0.00,,,0.00,VWS V14.00,2013-12-03 21:01:00,
2013-12-03 16:06:00,75.2,61.3,29.89,SW,217,0.0,0.0,62,0.00,,,0.00,VWS V14.00,2013-12-03 21:06:00,
2013-12-03 16:11:00,75.3,61.4,29.90,SW,217,0.0,0.0,62,0.00,,,0.00,VWS V14.00,2013-12-03 21:11:00,
2013-12-03 16:16:00,75.5,61.1,29.90,SW,217,0.0,0.0,61,0.00,,,0.00,VWS V14.00,2013-12-03 21:16:00,
2013-12-03 16:21:00,75.8,61.4,29.90,SSW,213,0.0,4.0,61,0.00,,,0.00,VWS V14.00,2013-12-03 21:21:00,
2013-12-03 16:26:00,76.0,61.1,29.90,SSW,213,0.0,4.0,60,0.00,,,0.00,VWS V14.00,2013-12-03 21:26:00,
2013-12-03 16:30:00,75.9,62.0,29.90,SSW,213,0.0,4.0,62,0.00,,,0.00,VWS V14.00,2013-12-03 21:30:00,
2013-12-03 16:31:00,75.9,61.5,29.91,SSW,213,0.0,4.0,61,0.00,,,0.00,VWS V14.00,2013-12-03 21:31:00,
2013-12-03 16:36:00,76.0,62.0,29.91,SSW,213,0.0,0.0,62,0.00,,,0.00,VWS V14.00,2013-12-03 21:36:00,
2013-12-03 16:41:00,75.8,61.9,29.91,SSW,213,0.0,1.0,62,0.00,,,0.00,VWS V14.00,2013-12-03 21:41:00,
2013-12-03 16:46:00,75.6,61.7,29.91,SSW,213,0.0,1.0,62,0.00,,,0.00,VWS V14.00,2013-12-03 21:46:00,
2013-12-03 16:51:00,75.2,61.8,29.91,ESE,114,0.0,1.0,63,0.00,,,0.00,VWS V14.00,2013-12-03 21:51:00,
2013-12-03 16:56:00,74.8,61.4,29.91,ESE,114,0.0,1.0,63,0.00,,,0.00,VWS V14.00,2013-12-03 21:56:00,
2013-12-03 17:00:00,74.3,60.9,29.91,ESE,114,0.0,1.0,63,0.00,,,0.00,VWS V14.00,2013-12-03 22:00:00,
2013-12-03 17:01:00,74.4,61.0,29.91,ESE,114,0.0,1.0,63,0.00,,,0.00,VWS V14.00,2013-12-03 22:01:00,
2013-12-03 17:06:00,73.9,61.0,29.91,ESE,114,0.0,0.0,64,0.00,,,0.00,VWS V14.00,2013-12-03 22:06:00,
2013-12-03 17:11:00,73.5,61.0,29.91,ESE,114,0.0,0.0,65,0.00,,,0.00,VWS V14.00,2013-12-03 22:11:00,
2013-12-03 17:17:00,73.3,60.8,29.91,ESE,114,0.0,0.0,65,0.00,,,0.00,VWS V14.00,2013-12-03 22:17:00,
2013-12-03 17:22:00,72.9,60.9,29.92,ESE,114,0.0,0.0,66,0.00,,,0.00,VWS V14.00,2013-12-03 22:22:00,
2013-12-03 17:27:00,72.5,60.5,29.92,ESE,114,0.0,0.0,66,0.00,,,0.00,VWS V14.00,2013-12-03 22:27:00,
2013-12-03 17:30:00,72.0,60.0,29.92,ESE,114,0.0,0.0,66,0.00,,,0.00,VWS V14.00,2013-12-03 22:30:00,
2013-12-03 17:32:00,72.0,60.0,29.92,ESE,114,0.0,0.0,66,0.00,,,0.00,VWS V14.00,2013-12-03 22:32:00,
2013-12-03 17:37:00,71.6,60.1,29.92,ESE,114,0.0,0.0,67,0.00,,,0.00,VWS V14.00,2013-12-03 22:37:00,
2013-12-03 17:42:00,71.3,59.8,29.92,ESE,114,0.0,0.0,67,0.00,,,0.00,VWS V14.00,2013-12-03 22:42:00,
2013-12-03 17:47:00,70.8,59.3,29.92,ESE,114,0.0,0.0,67,0.00,,,0.00,VWS V14.00,2013-12-03 22:47:00,
2013-12-03 17:52:00,70.6,59.1,29.92,ESE,114,0.0,0.0,67,0.00,,,0.00,VWS V14.00,2013-12-03 22:52:00,
2013-12-03 17:57:00,70.3,58.8,29.93,ESE,114,0.0,0.0,67,0.00,,,0.00,VWS V14.00,2013-12-03 22:57:00,
2013-12-03 18:00:00,70.0,58.5,29.93,ESE,114,0.0,0.0,67,0.00,,,0.00,VWS V14.00,2013-12-03 23:00:00,
2013-12-03 18:02:00,70.0,58.5,29.93,ESE,114,0.0,0.0,67,0.00,,,0.00,VWS V14.00,2013-12-03 23:02:00,
2013-12-03 18:07:00,69.7,58.3,29.93,ESE,114,0.0,0.0,67,0.00,,,0.00,VWS V14.00,2013-12-03 23:07:00,
2013-12-03 18:12:00,69.4,58.0,29.93,ESE,114,0.0,0.0,67,0.00,,,0.00,VWS V14.00,2013-12-03 23:12:00,
2013-12-03 18:17:00,69.0,57.6,29.93,ESE,114,0.0,0.0,67,0.00,,,0.00,VWS V14.00,2013-12-03 23:17:00,
2013-12-03 18:22:00,68.7,57.3,29.93,ESE,114,0.0,0.0,67,0.00,,,0.00,VWS V14.00,2013-12-03 23:22:00,
2013-12-03 18:27:00,68.4,57.0,29.93,ESE,114,0.0,0.0,67,0.00,,,0.00,VWS V14.00,2013-12-03 23:27:00,
2013-12-03 18:30:00,68.2,56.4,29.93,ESE,114,0.0,0.0,66,0.00,,,0.00,VWS V14.00,2013-12-03 23:30:00,
2013-12-03 18:32:00,68.2,56.4,29.93,ESE,114,0.0,0.0,66,0.00,,,0.00,VWS V14.00,2013-12-03 23:32:00,
2013-12-03 18:37:00,68.0,56.2,29.93,ESE,114,0.0,0.0,66,0.00,,,0.00,VWS V14.00,2013-12-03 23:37:00,
2013-12-03 18:42:00,67.7,56.0,29.93,ESE,114,0.0,0.0,66,0.00,,,0.00,VWS V14.00,2013-12-03 23:42:00,
2013-12-03 18:47:00,67.5,55.3,29.93,ESE,114,0.0,0.0,65,0.00,,,0.00,VWS V14.00,2013-12-03 23:47:00,
2013-12-03 18:52:00,67.3,55.2,29.93,ESE,114,0.0,0.0,65,0.00,,,0.00,VWS V14.00,2013-12-03 23:52:00,
2013-12-03 18:57:00,67.0,54.9,29.93,ESE,114,0.0,0.0,65,0.00,,,0.00,VWS V14.00,2013-12-03 23:57:00,
2013-12-03 19:00:00,66.8,54.2,29.94,ESE,114,0.0,0.0,64,0.00,,,0.00,VWS V14.00,2013-12-04 00:00:00,
2013-12-03 19:02:00,66.8,54.2,29.94,ESE,114,0.0,0.0,64,0.00,,,0.00,VWS V14.00,2013-12-04 00:02:00,
2013-12-03 19:08:00,66.6,54.1,29.94,ESE,114,0.0,0.0,64,0.00,,,0.00,VWS V14.00,2013-12-04 00:08:00,
2013-12-03 19:13:00,66.3,53.3,29.94,ESE,114,0.0,0.0,63,0.00,,,0.00,VWS V14.00,2013-12-04 00:13:00,
2013-12-03 19:18:00,66.1,52.7,29.94,ESE,114,0.0,0.0,62,0.00,,,0.00,VWS V14.00,2013-12-04 00:18:00,
2013-12-03 19:23:00,65.9,52.5,29.94,ESE,114,0.0,0.0,62,0.00,,,0.00,VWS V14.00,2013-12-04 00:23:00,
2013-12-03 19:28:00,65.8,52.0,29.94,ESE,114,0.0,0.0,61,0.00,,,0.00,VWS V14.00,2013-12-04 00:28:00,
2013-12-03 19:30:00,65.7,51.5,29.94,ESE,114,0.0,0.0,60,0.00,,,0.00,VWS V14.00,2013-12-04 00:30:00,
2013-12-03 19:33:00,65.7,51.5,29.94,ESE,114,0.0,0.0,60,0.00,,,0.00,VWS V14.00,2013-12-04 00:33:00,
2013-12-03 19:38:00,65.6,51.4,29.94,ESE,114,0.0,0.0,60,0.00,,,0.00,VWS V14.00,2013-12-04 00:38:00,
2013-12-03 19:43:00,65.5,50.8,29.94,ESE,114,0.0,0.0,59,0.00,,,0.00,VWS V14.00,2013-12-04 00:43:00,
2013-12-03 19:48:00,65.5,50.3,29.95,ESE,114,0.0,0.0,58,0.00,,,0.00,VWS V14.00,2013-12-04 00:48:00,
2013-12-03 19:53:00,65.5,50.3,29.95,ESE,114,0.0,0.0,58,0.00,,,0.00,VWS V14.00,2013-12-04 00:53:00,
2013-12-03 19:58:00,65.5,50.3,29.95,ESE,114,0.0,0.0,58,0.00,,,0.00,VWS V14.00,2013-12-04 00:58:00,
2013-12-03 20:00:00,65.4,49.8,29.95,ESE,114,0.0,0.0,57,0.00,,,0.00,VWS V14.00,2013-12-04 01:00:00,
2013-12-03 20:03:00,65.4,49.8,29.95,ESE,114,0.0,0.0,57,0.00,,,0.00,VWS V14.00,2013-12-04 01:03:00,
2013-12-03 20:08:00,65.3,49.2,29.95,ESE,114,0.0,0.0,56,0.00,,,0.00,VWS V14.00,2013-12-04 01:08:00,
2013-12-03 20:13:00,65.2,48.6,29.95,ESE,114,0.0,0.0,55,0.00,,,0.00,VWS V14.00,2013-12-04 01:13:00,
2013-12-03 20:18:00,65.1,48.1,29.95,ESE,114,0.0,0.0,54,0.00,,,0.00,VWS V14.00,2013-12-04 01:18:00,
2013-12-03 20:23:00,65.0,47.5,29.95,ESE,114,0.0,0.0,53,0.00,,,0.00,VWS V14.00,2013-12-04 01:23:00,
2013-12-03 20:28:00,65.0,47.0,29.95,ESE,114,0.0,0.0,52,0.00,,,0.00,VWS V14.00,2013-12-04 01:28:00,
2013-12-03 20:30:00,65.0,46.5,29.95,ESE,114,0.0,0.0,51,0.00,,,0.00,VWS V14.00,2013-12-04 01:30:00,
2013-12-03 20:33:00,64.9,46.4,29.95,ESE,114,0.0,0.0,51,0.00,,,0.00,VWS V14.00,2013-12-04 01:33:00,
2013-12-03 20:38:00,64.8,46.3,29.95,ESE,114,0.0,0.0,51,0.00,,,0.00,VWS V14.00,2013-12-04 01:38:00,
2013-12-03 20:43:00,64.6,45.6,29.95,ESE,114,0.0,0.0,50,0.00,,,0.00,VWS V14.00,2013-12-04 01:43:00,
2013-12-03 20:48:00,64.5,44.9,29.95,ESE,114,0.0,0.0,49,0.00,,,0.00,VWS V14.00,2013-12-04 01:48:00,
2013-12-03 20:54:00,64.4,44.3,29.95,ESE,114,0.0,0.0,48,0.00,,,0.00,VWS V14.00,2013-12-04 01:54:00,
2013-12-03 20:59:00,64.4,43.2,29.95,ESE,114,0.0,0.0,46,0.00,,,0.00,VWS V14.00,2013-12-04 01:59:00,
2013-12-03 21:00:00,64.4,42.6,29.95,ESE,114,0.0,0.0,45,0.00,,,0.00,VWS V14.00,2013-12-04 02:00:00,
2013-12-03 21:04:00,64.4,42.6,29.95,ESE,114,0.0,0.0,45,0.00,,,0.00,VWS V14.00,2013-12-04 02:04:00,
2013-12-03 21:09:00,64.4,42.0,29.95,ESE,114,0.0,0.0,44,0.00,,,0.00,VWS V14.00,2013-12-04 02:09:00,
2013-12-03 21:14:00,64.3,41.3,29.96,ESE,114,0.0,0.0,43,0.00,,,0.00,VWS V14.00,2013-12-04 02:14:00,
2013-12-03 21:19:00,64.3,41.3,29.96,ESE,114,0.0,0.0,43,0.00,,,0.00,VWS V14.00,2013-12-04 02:19:00,
2013-12-03 21:24:00,64.3,40.1,29.96,ESE,114,0.0,0.0,41,0.00,,,0.00,VWS V14.00,2013-12-04 02:24:00,
2013-12-03 21:29:00,64.3,40.1,29.96,ESE,114,0.0,0.0,41,0.00,,,0.00,VWS V14.00,2013-12-04 02:29:00,
2013-12-03 21:30:00,64.3,40.1,29.97,ESE,114,0.0,0.0,41,0.00,,,0.00,VWS V14.00,2013-12-04 02:30:00,
2013-12-03 21:34:00,64.3,39.5,29.97,ESE,114,0.0,0.0,40,0.00,,,0.00,VWS V14.00,2013-12-04 02:34:00,
2013-12-03 21:39:00,64.3,39.5,29.97,ESE,114,0.0,0.0,40,0.00,,,0.00,VWS V14.00,2013-12-04 02:39:00,
2013-12-03 21:44:00,64.3,39.5,29.97,ESE,114,0.0,0.0,40,0.00,,,0.00,VWS V14.00,2013-12-04 02:44:00,
2013-12-03 21:49:00,64.3,38.8,29.97,ESE,114,0.0,0.0,39,0.00,,,0.00,VWS V14.00,2013-12-04 02:49:00,
2013-12-03 21:54:00,64.3,38.2,29.97,ESE,114,0.0,0.0,38,0.00,,,0.00,VWS V14.00,2013-12-04 02:54:00,
2013-12-03 21:59:00,64.3,38.2,29.98,ESE,114,0.0,0.0,38,0.00,,,0.00,VWS V14.00,2013-12-04 02:59:00,
2013-12-03 22:00:00,64.3,38.2,29.98,ESE,114,0.0,0.0,38,0.00,,,0.00,VWS V14.00,2013-12-04 03:00:00,
2013-12-03 22:04:00,64.3,38.2,29.98,ESE,114,0.0,0.0,38,0.00,,,0.00,VWS V14.00,2013-12-04 03:04:00,
2013-12-03 22:09:00,64.2,38.1,29.98,ESE,114,0.0,0.0,38,0.00,,,0.00,VWS V14.00,2013-12-04 03:09:00,
2013-12-03 22:14:00,64.1,38.0,29.98,ESE,114,0.0,0.0,38,0.00,,,0.00,VWS V14.00,2013-12-04 03:14:00,
2013-12-03 22:19:00,64.0,37.9,29.98,ESE,114,0.0,0.0,38,0.00,,,0.00,VWS V14.00,2013-12-04 03:19:00,
2013-12-03 22:24:00,63.8,37.0,29.98,ESE,114,0.0,0.0,37,0.00,,,0.00,VWS V14.00,2013-12-04 03:24:00,
2013-12-03 22:29:00,63.7,37.0,29.99,ESE,114,0.0,0.0,37,0.00,,,0.00,VWS V14.00,2013-12-04 03:29:00,
2013-12-03 22:30:00,63.7,37.0,29.99,ESE,114,0.0,0.0,37,0.00,,,0.00,VWS V14.00,2013-12-04 03:30:00,
2013-12-03 22:34:00,63.6,36.2,29.99,ESE,114,0.0,0.0,36,0.00,,,0.00,VWS V14.00,2013-12-04 03:34:00,
2013-12-03 22:39:00,63.5,36.1,29.99,ESE,114,0.0,0.0,36,0.00,,,0.00,VWS V14.00,2013-12-04 03:39:00,
2013-12-03 22:45:00,63.4,36.0,29.99,ESE,114,0.0,0.0,36,0.00,,,0.00,VWS V14.00,2013-12-04 03:45:00,
2013-12-03 22:50:00,63.4,35.3,29.99,ESE,114,0.0,0.0,35,0.00,,,0.00,VWS V14.00,2013-12-04 03:50:00,
2013-12-03 22:55:00,63.3,35.2,30.00,ESE,114,0.0,0.0,35,0.00,,,0.00,VWS V14.00,2013-12-04 03:55:00,
2013-12-03 23:00:00,63.3,35.2,30.00,ESE,114,0.0,0.0,35,0.00,,,0.00,VWS V14.00,2013-12-04 04:00:00,
2013-12-03 23:05:00,63.2,35.1,30.00,ESE,114,0.0,0.0,35,0.00,,,0.00,VWS V14.00,2013-12-04 04:05:00,
2013-12-03 23:10:00,63.1,35.0,30.00,ESE,114,0.0,0.0,35,0.00,,,0.00,VWS V14.00,2013-12-04 04:10:00,
2013-12-03 23:15:00,63.0,34.9,30.00,ESE,114,0.0,0.0,35,0.00,,,0.00,VWS V14.00,2013-12-04 04:15:00,
2013-12-03 23:20:00,62.9,34.8,30.00,ESE,114,0.0,0.0,35,0.00,,,0.00,VWS V14.00,2013-12-04 04:20:00,
2013-12-03 23:25:00,62.9,34.1,30.00,ESE,114,0.0,0.0,34,0.00,,,0.00,VWS V14.00,2013-12-04 04:25:00,
2013-12-03 23:30:00,62.9,34.1,30.00,ESE,114,0.0,0.0,34,0.00,,,0.00,VWS V14.00,2013-12-04 04:30:00,
2013-12-03 23:35:00,62.9,34.1,30.00,ESE,114,0.0,0.0,34,0.00,,,0.00,VWS V14.00,2013-12-04 04:35:00,
2013-12-03 23:40:00,62.8,34.0,30.00,ESE,114,0.0,0.0,34,0.00,,,0.00,VWS V14.00,2013-12-04 04:40:00,
2013-12-03 23:45:00,62.9,34.1,30.00,ESE,114,0.0,0.0,34,0.00,,,0.00,VWS V14.00,2013-12-04 04:45:00,
2013-12-03 23:50:00,62.9,34.1,30.00,ESE,114,0.0,0.0,34,0.00,,,0.00,VWS V14.00,2013-12-04 04:50:00,
2013-12-03 23:55:00,63.1,34.3,30.00,ESE,114,0.0,0.0,34,0.00,,,0.00,VWS V14.00,2013-12-04 04:55:00,